Aviation Digital Data Service (ADDS)

Output produced by TAFs form (0901 UTC 30 May 2017)
found at http://www.aviationweather.gov/adds/tafs/
 
METAR text: RJSC 300800Z 36010KT 9999 FEW050 SCT070 26/14 Q1007
Conditions at: RJSC (YAMAGATA(CIV/JGS, JP) observed 0800 UTC 30 May 2017
Temperature: 26.0°C (79°F)
Dewpoint: 14.0°C (57°F) [RH = 48%]
Pressure (altimeter): 29.73 inches Hg (1007.0 mb)
Winds: from the N (360 degrees) at 12 MPH (10 knots; 5.2 m/s)
Visibility: 6 or more miles (10+ km)
Ceiling: at least 12,000 feet AGL
Clouds: few clouds at 5000 feet AGL
scattered clouds at 7000 feet AGL
Weather: no significant weather observed at this time